createdAt,value
2023-04-02T00:00:52.819Z,85.4221
2023-04-02T00:01:54.241Z,85.6287
2023-04-02T00:02:55.730Z,85.5333
2023-04-02T00:03:57.173Z,85.2676
2023-04-02T00:04:58.598Z,85.0128
2023-04-02T00:05:59.964Z,84.9967
2023-04-02T00:07:01.327Z,85.1694
2023-04-02T00:08:02.740Z,84.7610
2023-04-02T00:09:04.116Z,84.3178
2023-04-02T00:10:05.549Z,84.0447
2023-04-02T00:11:06.958Z,84.1659
2023-04-02T00:12:08.339Z,84.7926
2023-04-02T00:13:09.735Z,84.7816
2023-04-02T00:14:11.186Z,84.7412
2023-04-02T00:15:12.635Z,84.7927
2023-04-02T00:16:14.018Z,84.6542
2023-04-02T00:17:15.437Z,84.6070
2023-04-02T00:18:16.902Z,85.0123
2023-04-02T00:19:18.279Z,85.0023
2023-04-02T00:20:19.628Z,84.8979
2023-04-02T00:21:20.970Z,84.5732
2023-04-02T00:22:22.377Z,84.4224
2023-04-02T00:23:23.770Z,84.3259
2023-04-02T00:24:25.199Z,84.7031
2023-04-02T00:25:26.576Z,84.8455
2023-04-02T00:26:28.037Z,84.8058
2023-04-02T00:27:29.363Z,85.1166
2023-04-02T00:28:30.749Z,85.2939
2023-04-02T00:29:32.133Z,85.6412
2023-04-02T00:30:33.508Z,85.8424
2023-04-02T00:31:34.900Z,86.3633
2023-04-02T00:32:36.307Z,86.5600
2023-04-02T00:33:37.742Z,86.9664
2023-04-02T00:34:39.204Z,87.3723
2023-04-02T00:35:40.660Z,87.6051
2023-04-02T00:36:42.171Z,87.5787
2023-04-02T00:37:43.571Z,87.7963
2023-04-02T00:38:46.665Z,88.0073
2023-04-02T00:39:46.425Z,87.8224
2023-04-02T00:40:47.774Z,87.9745
2023-04-02T00:41:49.197Z,87.9070
2023-04-02T00:42:50.607Z,87.8644
2023-04-02T00:43:52.051Z,88.0978
2023-04-02T00:44:53.504Z,88.1162
2023-04-02T00:45:54.923Z,88.2618
2023-04-02T00:46:56.354Z,88.3804
2023-04-02T00:47:57.854Z,88.4362
2023-04-02T00:48:59.241Z,88.4191
2023-04-02T00:50:00.717Z,88.5586
2023-04-02T00:51:02.093Z,88.6353
2023-04-02T00:52:03.531Z,88.4532
2023-04-02T00:53:04.920Z,88.3866
2023-04-02T00:54:06.378Z,88.5932
2023-04-02T00:55:07.793Z,88.7288
2023-04-02T00:56:09.280Z,88.8735
2023-04-02T00:57:10.653Z,88.8703
2023-04-02T00:58:12.131Z,88.7374
2023-04-02T00:59:13.495Z,88.7592
2023-04-02T01:00:14.979Z,88.6524
2023-04-02T01:01:16.395Z,88.5958
2023-04-02T01:02:18.070Z,88.6427
2023-04-02T01:03:19.666Z,88.7977
2023-04-02T01:04:21.515Z,88.7643
2023-04-02T01:05:23.068Z,88.8155
2023-04-02T01:06:24.471Z,88.7668
2023-04-02T01:07:26.112Z,88.6983
2023-04-02T01:08:27.534Z,88.3573
2023-04-02T01:09:28.882Z,88.3345
2023-04-02T01:10:30.343Z,88.3407
2023-04-02T01:11:31.879Z,88.2750
2023-04-02T01:12:33.381Z,88.4724
2023-04-02T01:13:34.782Z,88.4324
2023-04-02T01:14:36.204Z,88.4492
2023-04-02T01:15:38.110Z,88.6290
2023-04-02T01:16:39.782Z,88.4118
2023-04-02T01:17:41.182Z,88.4543
2023-04-02T01:18:42.583Z,88.5024
2023-04-02T01:19:43.938Z,88.7844
2023-04-02T01:20:45.384Z,88.7747
2023-04-02T01:21:46.796Z,88.4927
2023-04-02T01:22:48.256Z,88.2604
2023-04-02T01:23:49.605Z,88.1351
2023-04-02T01:24:50.993Z,88.2087
2023-04-02T01:25:52.449Z,88.3825
2023-04-02T01:26:53.777Z,88.1815
2023-04-02T01:27:55.182Z,88.1643
2023-04-02T01:28:56.575Z,88.0448
2023-04-02T01:29:57.955Z,87.9769
2023-04-02T01:30:59.346Z,87.9894
2023-04-02T01:32:00.791Z,87.9174
2023-04-02T01:33:02.255Z,88.0115
2023-04-02T01:34:03.674Z,88.0033
2023-04-02T01:35:05.039Z,88.0266
2023-04-02T01:36:06.419Z,88.1457
2023-04-02T01:37:07.813Z,88.0342
2023-04-02T01:38:09.205Z,88.0834
2023-04-02T01:39:10.628Z,88.1281
2023-04-02T01:40:12.023Z,88.4133
2023-04-02T01:41:13.407Z,88.5032
2023-04-02T01:42:14.824Z,88.4334
2023-04-02T01:43:16.195Z,88.2197
2023-04-02T01:44:17.553Z,88.0549
2023-04-02T01:45:18.955Z,88.0924
2023-04-02T01:46:20.435Z,88.2332
2023-04-02T01:47:21.768Z,87.9530
2023-04-02T01:48:23.208Z,87.7820
2023-04-02T01:49:24.573Z,87.5180
2023-04-02T01:50:25.977Z,87.5647
2023-04-02T01:51:27.394Z,87.1345
2023-04-02T01:52:28.882Z,87.0235
2023-04-02T01:53:30.222Z,87.2645
2023-04-02T01:54:31.665Z,87.1835
2023-04-02T01:55:33.328Z,87.0470
2023-04-02T01:56:35.179Z,87.1697
2023-04-02T01:57:36.572Z,86.8035
2023-04-02T01:58:37.950Z,86.5447
2023-04-02T01:59:39.369Z,86.4146
2023-04-02T02:00:40.902Z,86.4134
2023-04-02T02:01:42.467Z,86.5801
2023-04-02T02:02:43.918Z,86.9890
2023-04-02T02:03:45.400Z,87.0612
2023-04-02T02:04:46.853Z,86.8355
2023-04-02T02:05:48.218Z,86.7860
2023-04-02T02:06:49.632Z,87.0057
2023-04-02T02:07:51.039Z,87.2145
2023-04-02T02:08:52.440Z,87.1588
2023-04-02T02:09:53.787Z,87.3625
2023-04-02T02:10:55.194Z,86.9144
2023-04-02T02:11:56.564Z,87.1704
2023-04-02T02:12:57.998Z,87.0058
2023-04-02T02:13:59.356Z,87.2692
2023-04-02T02:15:00.814Z,87.5302
2023-04-02T02:16:02.189Z,87.6236
2023-04-02T02:17:03.575Z,87.5313
2023-04-02T02:18:04.927Z,87.2197
2023-04-02T02:19:06.322Z,86.8904
2023-04-02T02:20:07.741Z,86.9503
2023-04-02T02:21:09.114Z,87.1091
2023-04-02T02:22:10.547Z,87.1134
2023-04-02T02:23:11.936Z,87.1016
2023-04-02T02:24:13.414Z,87.1045
2023-04-02T02:25:14.827Z,87.4733
2023-04-02T02:26:16.238Z,87.4365
2023-04-02T02:27:17.587Z,86.8909
2023-04-02T02:28:19.002Z,86.3605
2023-04-02T02:29:20.384Z,86.3830
2023-04-02T02:30:21.770Z,86.9717
2023-04-02T02:31:23.270Z,87.1313
2023-04-02T02:32:24.701Z,86.2561
2023-04-02T02:33:26.079Z,85.9265
2023-04-02T02:34:27.469Z,85.7715
2023-04-02T02:35:28.983Z,85.8413
2023-04-02T02:36:30.364Z,86.2293
2023-04-02T02:37:31.741Z,86.3974
2023-04-02T02:38:33.147Z,86.3218
2023-04-02T02:39:34.635Z,85.5424
2023-04-02T02:40:36.049Z,85.1231
2023-04-02T02:41:37.441Z,85.2377
2023-04-02T02:42:38.832Z,85.5205
2023-04-02T02:43:40.272Z,85.6195
2023-04-02T02:44:41.670Z,85.3938
2023-04-02T02:45:43.071Z,85.6232
2023-04-02T02:46:44.437Z,85.6816
2023-04-02T02:47:45.885Z,85.8240
2023-04-02T02:48:47.217Z,86.0885
2023-04-02T02:49:48.632Z,85.9082
2023-04-02T02:50:50.060Z,85.9229
2023-04-02T02:51:51.441Z,86.0428
2023-04-02T02:52:52.849Z,85.8770
2023-04-02T02:53:54.249Z,85.9541
2023-04-02T02:54:55.917Z,85.8896
2023-04-02T02:55:57.331Z,85.7190
2023-04-02T02:56:58.716Z,85.6314
2023-04-02T02:58:00.142Z,85.9009
2023-04-02T02:59:01.516Z,85.9174
2023-04-02T03:00:02.962Z,85.8650
2023-04-02T03:01:04.402Z,85.8673
2023-04-02T03:02:05.762Z,86.0014
2023-04-02T03:03:07.238Z,85.5627
2023-04-02T03:04:09.000Z,85.3007
2023-04-02T03:05:10.674Z,85.2742
2023-04-02T03:06:12.100Z,84.9342
2023-04-02T03:07:13.485Z,85.0239
2023-04-02T03:08:14.975Z,85.1832
2023-04-02T03:09:16.398Z,85.3852
2023-04-02T03:10:17.816Z,85.1015
2023-04-02T03:11:19.277Z,85.0594
2023-04-02T03:12:20.685Z,85.1931
2023-04-02T03:13:22.066Z,85.3820
2023-04-02T03:14:23.446Z,85.0831
2023-04-02T03:15:24.798Z,85.4325
2023-04-02T03:16:26.297Z,85.2895
2023-04-02T03:17:27.732Z,85.6967
2023-04-02T03:18:29.155Z,85.7479
2023-04-02T03:19:30.566Z,85.9201
2023-04-02T03:20:31.951Z,85.6961
2023-04-02T03:21:33.399Z,85.2238
2023-04-02T03:22:34.776Z,85.0513
2023-04-02T03:23:36.164Z,85.1959
2023-04-02T03:24:37.524Z,85.3035
2023-04-02T03:25:38.979Z,85.4186
2023-04-02T03:26:40.308Z,85.3194
2023-04-02T03:27:41.755Z,85.4633
2023-04-02T03:28:43.135Z,85.5062
2023-04-02T03:29:44.575Z,85.7904
2023-04-02T03:30:46.028Z,85.2187
2023-04-02T03:31:47.585Z,85.1955
2023-04-02T03:32:49.112Z,85.4766
2023-04-02T03:33:50.596Z,85.3053
2023-04-02T03:34:52.059Z,85.1854
2023-04-02T03:35:53.611Z,85.1407
2023-04-02T03:36:55.065Z,85.0753
2023-04-02T03:37:56.547Z,85.1588
2023-04-02T03:38:58.105Z,85.2722
2023-04-02T03:39:59.594Z,85.2213
2023-04-02T03:41:01.173Z,85.1955
2023-04-02T03:42:02.553Z,85.3066
2023-04-02T03:43:04.015Z,85.3946
2023-04-02T03:44:05.514Z,85.2572
2023-04-02T03:45:07.156Z,85.4238
2023-04-02T03:46:08.926Z,85.0932
2023-04-02T03:47:10.381Z,85.1350
2023-04-02T03:48:11.841Z,85.4741
2023-04-02T03:49:13.324Z,85.4159
2023-04-02T03:50:14.796Z,85.6150
2023-04-02T03:51:16.307Z,85.6725
2023-04-02T03:52:17.779Z,85.6389
2023-04-02T03:53:19.242Z,85.6439
2023-04-02T03:54:20.720Z,85.8859
2023-04-02T03:55:22.253Z,86.0414
2023-04-02T03:56:23.636Z,86.0837
2023-04-02T03:57:25.174Z,86.1247
2023-04-02T03:58:26.721Z,86.1672
2023-04-02T03:59:28.283Z,86.1091
2023-04-02T04:00:29.703Z,86.2928
2023-04-02T04:01:31.209Z,86.2334
2023-04-02T04:02:32.652Z,86.2506
2023-04-02T04:03:34.181Z,86.3445
2023-04-02T04:04:35.730Z,86.2210
2023-04-02T04:05:37.456Z,86.0600
2023-04-02T04:06:39.097Z,86.0044
2023-04-02T04:07:40.520Z,86.0235
2023-04-02T04:08:41.949Z,84.5300
2023-04-02T04:09:43.413Z,82.9366
2023-04-02T04:10:44.890Z,82.7438
2023-04-02T04:11:46.346Z,83.1391
2023-04-02T04:12:47.915Z,83.1582
2023-04-02T04:13:49.384Z,82.9572
2023-04-02T04:14:50.851Z,82.6332
2023-04-02T04:15:52.275Z,82.7502
2023-04-02T04:16:54.003Z,82.7416
2023-04-02T04:17:55.950Z,82.9332
2023-04-02T04:18:57.396Z,82.9825
2023-04-02T04:19:58.856Z,82.8019
2023-04-02T04:21:00.396Z,82.5727
2023-04-02T04:22:01.850Z,82.7298
2023-04-02T04:23:03.268Z,82.5138
2023-04-02T04:24:04.863Z,82.7326
2023-04-02T04:25:06.285Z,82.9328
2023-04-02T04:26:07.731Z,83.0601
2023-04-02T04:27:09.182Z,82.9739
2023-04-02T04:28:10.653Z,82.7154
2023-04-02T04:29:12.070Z,82.8261
2023-04-02T04:30:13.641Z,82.8154
2023-04-02T04:31:15.103Z,82.9939
2023-04-02T04:32:16.609Z,83.2009
2023-04-02T04:33:18.246Z,83.5010
2023-04-02T04:34:19.697Z,83.7692
2023-04-02T04:35:21.144Z,83.5369
2023-04-02T04:36:22.586Z,83.3797
2023-04-02T04:37:24.077Z,83.2698
2023-04-02T04:38:25.562Z,83.5306
2023-04-02T04:39:27.154Z,83.2713
2023-04-02T04:40:28.602Z,83.1635
2023-04-02T04:41:30.049Z,83.1817
2023-04-02T04:42:31.491Z,83.4750
2023-04-02T04:43:32.982Z,83.4070
2023-04-02T04:44:34.445Z,83.2961
2023-04-02T04:45:36.221Z,83.0514
2023-04-02T04:46:37.882Z,83.0256
2023-04-02T04:47:39.373Z,82.9473
2023-04-02T04:48:40.813Z,82.5564
2023-04-02T04:49:42.266Z,82.6331
2023-04-02T04:50:43.705Z,82.9526
2023-04-02T04:51:45.179Z,82.8879
2023-04-02T04:52:46.632Z,82.3905
2023-04-02T04:53:48.185Z,82.6329
2023-04-02T04:54:49.663Z,82.5877
2023-04-02T04:55:51.104Z,82.7971
2023-04-02T04:56:52.606Z,82.9426
2023-04-02T04:57:54.040Z,82.9729
2023-04-02T04:58:55.454Z,82.7087
2023-04-02T04:59:56.878Z,82.3293
2023-04-02T05:00:58.321Z,82.5382
2023-04-02T05:01:59.793Z,82.5651
2023-04-02T05:03:01.373Z,82.5452
2023-04-02T05:04:02.791Z,82.7978
2023-04-02T05:05:04.317Z,83.0109
2023-04-02T05:06:05.764Z,83.1835
2023-04-02T05:07:07.235Z,82.8793
2023-04-02T05:08:08.664Z,83.0163
2023-04-02T05:09:10.080Z,83.1867
2023-04-02T05:10:11.563Z,82.6220
2023-04-02T05:11:13.045Z,82.4093
2023-04-02T05:12:14.493Z,82.6630
2023-04-02T05:13:15.913Z,82.7666
2023-04-02T05:14:17.416Z,82.7881
2023-04-02T05:15:18.867Z,82.8128
2023-04-02T05:16:20.383Z,82.8638
2023-04-02T05:17:21.870Z,82.9927
2023-04-02T05:18:23.372Z,82.6342
2023-04-02T05:19:24.824Z,82.6874
2023-04-02T05:20:26.263Z,82.7295
2023-04-02T05:21:27.669Z,82.5938
2023-04-02T05:22:29.109Z,82.8992
2023-04-02T05:23:30.614Z,82.7986
2023-04-02T05:24:31.998Z,82.7828
2023-04-02T05:25:33.669Z,82.6722
2023-04-02T05:26:35.183Z,82.7559
2023-04-02T05:27:36.681Z,82.8984
2023-04-02T05:28:38.132Z,83.1012
2023-04-02T05:29:39.647Z,82.7637
2023-04-02T05:30:41.251Z,82.1860
2023-04-02T05:31:42.795Z,81.8298
2023-04-02T05:32:44.367Z,81.8953
2023-04-02T05:33:45.866Z,81.9485
2023-04-02T05:34:47.343Z,82.2458
2023-04-02T05:35:48.867Z,82.4076
2023-04-02T05:36:50.356Z,82.4060
2023-04-02T05:37:51.809Z,81.9530
2023-04-02T05:38:53.277Z,82.0617
2023-04-02T05:39:54.792Z,82.1099
2023-04-02T05:40:56.275Z,82.0863
2023-04-02T05:41:57.761Z,82.1550
2023-04-02T05:42:59.197Z,82.1159
2023-04-02T05:44:00.665Z,81.8303
2023-04-02T05:45:02.134Z,81.9819
2023-04-02T05:46:03.804Z,82.1039
2023-04-02T05:47:05.244Z,82.1898
2023-04-02T05:48:06.748Z,82.1563
2023-04-02T05:49:08.183Z,81.8882
2023-04-02T05:50:09.663Z,82.0348
2023-04-02T05:51:11.094Z,82.0974
2023-04-02T05:52:12.556Z,82.2088
2023-04-02T05:53:14.095Z,82.1640
2023-04-02T05:54:15.563Z,82.0301
2023-04-02T05:55:17.386Z,82.0126
2023-04-02T05:56:18.813Z,82.0311
2023-04-02T05:57:20.270Z,81.9635
2023-04-02T05:58:35.573Z,81.9561
2023-04-02T05:59:21.738Z,81.8629
2023-04-02T06:00:23.180Z,81.9403
2023-04-02T06:01:24.620Z,81.7854
2023-04-02T06:02:26.086Z,81.6126
2023-04-02T06:03:27.745Z,81.5545
2023-04-02T06:04:29.223Z,81.4853
2023-04-02T06:05:30.641Z,81.7247
2023-04-02T06:06:32.075Z,81.8342
2023-04-02T06:07:33.516Z,81.6370
2023-04-02T06:08:35.057Z,81.8123
2023-04-02T06:09:36.519Z,81.6997
2023-04-02T06:10:37.972Z,81.7722
2023-04-02T06:11:39.417Z,81.7409
2023-04-02T06:12:40.922Z,81.8168
2023-04-02T06:13:42.406Z,81.8430
2023-04-02T06:14:43.935Z,81.8820
2023-04-02T06:15:47.247Z,81.3273
2023-04-02T06:16:46.801Z,81.3399
2023-04-02T06:17:48.301Z,81.3703
2023-04-02T06:18:49.789Z,81.3836
2023-04-02T06:19:51.251Z,81.4257
2023-04-02T06:20:52.720Z,81.4669
2023-04-02T06:21:54.124Z,81.2372
2023-04-02T06:22:55.623Z,81.3945
2023-04-02T06:23:57.102Z,81.1973
2023-04-02T06:24:58.543Z,81.2540
2023-04-02T06:26:00.013Z,80.8489
2023-04-02T06:27:01.491Z,80.6532
2023-04-02T06:28:02.982Z,80.4402
2023-04-02T06:29:04.465Z,80.6414
2023-04-02T06:30:05.917Z,80.4650
2023-04-02T06:31:07.552Z,80.0473
2023-04-02T06:32:08.992Z,80.2316
2023-04-02T06:33:10.521Z,80.2750
2023-04-02T06:34:12.000Z,80.3170
2023-04-02T06:35:13.442Z,80.3782
2023-04-02T06:36:14.878Z,80.5937
2023-04-02T06:37:16.252Z,80.5557
2023-04-02T06:38:17.745Z,80.5541
2023-04-02T06:39:19.184Z,80.7849
2023-04-02T06:40:20.640Z,80.5206
2023-04-02T06:41:22.861Z,79.8800
2023-04-02T06:42:24.331Z,80.0883
2023-04-02T06:43:25.780Z,80.1511
2023-04-02T06:44:27.254Z,80.3839
2023-04-02T06:45:28.681Z,80.2088
2023-04-02T06:46:30.172Z,79.7949
2023-04-02T06:47:31.704Z,79.6252
2023-04-02T06:48:33.280Z,79.7039
2023-04-02T06:49:34.701Z,79.5772
2023-04-02T06:50:36.168Z,79.6078
2023-04-02T06:51:37.609Z,79.4028
2023-04-02T06:52:39.072Z,79.6309
2023-04-02T06:53:40.517Z,79.7076
2023-04-02T06:54:41.948Z,79.7982
2023-04-02T06:55:43.422Z,79.9155
2023-04-02T06:56:44.779Z,79.9093
2023-04-02T06:57:46.244Z,80.0135
2023-04-02T06:58:47.709Z,79.7814
2023-04-02T06:59:49.132Z,79.3918
2023-04-02T07:00:50.513Z,79.2819
2023-04-02T07:01:51.998Z,79.2007
2023-04-02T07:02:55.152Z,79.2346
2023-04-02T07:03:58.447Z,79.4582
2023-04-02T07:05:00.864Z,78.5222
2023-04-02T07:06:02.273Z,78.3303
2023-04-02T07:07:03.734Z,78.0701
2023-04-02T07:08:05.208Z,78.3719
2023-04-02T07:09:07.641Z,78.0457
2023-04-02T07:10:09.172Z,77.7512
2023-04-02T07:11:10.649Z,77.9375
2023-04-02T07:12:12.062Z,78.2021
2023-04-02T07:13:13.533Z,78.7068
2023-04-02T07:14:15.002Z,78.1284
2023-04-02T07:15:16.586Z,77.8306
2023-04-02T07:16:18.093Z,78.0727
2023-04-02T07:17:19.640Z,77.7543
2023-04-02T07:18:21.198Z,77.8875
2023-04-02T07:19:22.769Z,77.9458
2023-04-02T07:20:24.238Z,78.0526
2023-04-02T07:21:25.683Z,78.6960
2023-04-02T07:22:27.091Z,78.1914
2023-04-02T07:23:28.560Z,78.2018
2023-04-02T07:24:30.030Z,78.0517
2023-04-02T07:25:31.487Z,77.8894
2023-04-02T07:26:32.932Z,77.2862
2023-04-02T07:27:34.379Z,77.2295
2023-04-02T07:28:35.859Z,77.0653
2023-04-02T07:29:37.271Z,77.0295
2023-04-02T07:30:38.688Z,77.0861
2023-04-02T07:31:40.230Z,76.9824
2023-04-02T07:32:41.674Z,76.7501
2023-04-02T07:33:43.081Z,76.9381
2023-04-02T07:34:44.485Z,76.9689
2023-04-02T07:35:46.028Z,76.7449
2023-04-02T07:36:47.441Z,76.1882
2023-04-02T07:37:48.894Z,75.9622
2023-04-02T07:38:50.303Z,76.2124
2023-04-02T07:39:51.809Z,75.6736
2023-04-02T07:40:53.238Z,76.1833
2023-04-02T07:41:54.568Z,75.5180
2023-04-02T07:42:56.038Z,75.3527
2023-04-02T07:43:57.524Z,75.5784
2023-04-02T07:44:58.926Z,75.2038
2023-04-02T07:46:00.339Z,75.5304
2023-04-02T07:47:01.834Z,75.7265
2023-04-02T07:48:03.495Z,75.9529
2023-04-02T07:49:05.010Z,75.6920
2023-04-02T07:50:06.491Z,74.6986
2023-04-02T07:51:07.919Z,74.4889
2023-04-02T07:52:09.373Z,73.2613
2023-04-02T07:53:10.786Z,73.0003
2023-04-02T07:54:12.254Z,73.4010
2023-04-02T07:55:13.672Z,73.7693
2023-04-02T07:56:15.104Z,72.7772
2023-04-02T07:57:16.556Z,71.7726
2023-04-02T07:58:17.975Z,71.5276
2023-04-02T07:59:19.442Z,71.4097
2023-04-02T08:00:20.860Z,70.9835
2023-04-02T08:01:22.279Z,71.9874
2023-04-02T08:02:23.703Z,73.4707
2023-04-02T08:03:25.318Z,74.1393
2023-04-02T08:04:26.845Z,74.2627
2023-04-02T08:05:28.331Z,74.3246
2023-04-02T08:06:29.776Z,74.7546
2023-04-02T08:07:31.229Z,74.4940
2023-04-02T08:08:32.685Z,74.1206
2023-04-02T08:09:34.123Z,74.0644
2023-04-02T08:10:35.639Z,74.7628
2023-04-02T08:11:37.154Z,74.7694
2023-04-02T08:12:38.678Z,74.6230
2023-04-02T08:13:40.131Z,74.8019
2023-04-02T08:14:41.639Z,73.8072
2023-04-02T08:15:43.028Z,74.0347
2023-04-02T08:16:44.586Z,75.4976
2023-04-02T08:17:46.029Z,75.8117
2023-04-02T08:18:47.473Z,75.2820
2023-04-02T08:19:55.130Z,74.4114
2023-04-02T08:20:49.011Z,74.2555
2023-04-02T08:21:50.466Z,74.5625
2023-04-02T08:22:51.945Z,74.6466
2023-04-02T08:23:53.371Z,75.0168
2023-04-02T08:24:54.912Z,76.1217
2023-04-02T08:25:56.366Z,75.9061
2023-04-02T08:26:57.847Z,75.7921
2023-04-02T08:27:59.292Z,75.8974
2023-04-02T08:29:00.853Z,75.7549
2023-04-02T08:30:02.316Z,75.4578
2023-04-02T08:31:03.853Z,75.0342
2023-04-02T08:32:05.276Z,75.5588
2023-04-02T08:33:06.768Z,75.0035
2023-04-02T08:34:08.195Z,74.8717
2023-04-02T08:35:09.731Z,75.1653
2023-04-02T08:36:11.304Z,74.4360
2023-04-02T08:37:12.733Z,74.1870
2023-04-02T08:38:14.140Z,74.2671
2023-04-02T08:39:15.586Z,75.1789
2023-04-02T08:40:17.023Z,74.4161
2023-04-02T08:41:18.571Z,74.5304
2023-04-02T08:42:19.984Z,74.5170
2023-04-02T08:43:23.109Z,74.8898
2023-04-02T08:44:22.973Z,75.0923
2023-04-02T08:45:25.595Z,74.8807
2023-04-02T08:46:24.918Z,74.7369
2023-04-02T08:47:26.420Z,74.6514
2023-04-02T08:48:27.841Z,74.0046
2023-04-02T08:49:29.322Z,74.1639
2023-04-02T08:50:30.861Z,74.2845
2023-04-02T08:51:32.302Z,74.4988
2023-04-02T08:52:33.740Z,74.0177
2023-04-02T08:53:35.206Z,74.4769
2023-04-02T08:54:36.676Z,74.0501
2023-04-02T08:55:38.240Z,74.4179
2023-04-02T08:56:39.737Z,74.1624
2023-04-02T08:57:41.182Z,73.7910
2023-04-02T08:58:42.610Z,73.6469
2023-04-02T08:59:44.107Z,73.8138
2023-04-02T09:00:45.562Z,73.7835
2023-04-02T09:01:47.031Z,72.9072
2023-04-02T09:02:48.480Z,72.5713
2023-04-02T09:03:49.916Z,72.6611
2023-04-02T09:04:51.439Z,72.9752
2023-04-02T09:05:52.933Z,73.2354
2023-04-02T09:06:54.369Z,73.4541
2023-04-02T09:07:55.811Z,73.6780
2023-04-02T09:08:57.267Z,74.0061
2023-04-02T09:09:58.836Z,74.3204
2023-04-02T09:11:00.306Z,74.2598
2023-04-02T09:12:01.803Z,74.0433
2023-04-02T09:13:03.198Z,73.9258
2023-04-02T09:14:04.747Z,73.3257
2023-04-02T09:15:06.214Z,72.6908
2023-04-02T09:16:07.792Z,73.1433
2023-04-02T09:17:09.251Z,73.3308
2023-04-02T09:18:10.741Z,73.0599
2023-04-02T09:19:12.166Z,72.7567
2023-04-02T09:20:13.661Z,72.1958
2023-04-02T09:21:15.112Z,71.6833
2023-04-02T09:22:16.593Z,71.9567
2023-04-02T09:23:18.044Z,71.6960
2023-04-02T09:24:19.523Z,71.4152
2023-04-02T09:25:21.021Z,71.7051
2023-04-02T09:26:22.460Z,71.2316
2023-04-02T09:27:23.893Z,71.9334
2023-04-02T09:28:25.341Z,71.7382
2023-04-02T09:29:26.769Z,71.3591
2023-04-02T09:30:28.257Z,70.9617
2023-04-02T09:31:29.705Z,72.0739
2023-04-02T09:32:31.165Z,71.3198
2023-04-02T09:33:32.536Z,71.1103
2023-04-02T09:34:34.159Z,71.6363
2023-04-02T09:35:35.597Z,71.6870
2023-04-02T09:36:37.051Z,71.3362
2023-04-02T09:37:38.464Z,71.0041
2023-04-02T09:38:39.955Z,71.0508
2023-04-02T09:39:41.430Z,70.7034
2023-04-02T09:40:43.097Z,71.7490
2023-04-02T09:41:48.186Z,72.0756
2023-04-02T09:42:44.590Z,71.9993
2023-04-02T09:43:46.046Z,72.1342
2023-04-02T09:44:47.516Z,71.4728
2023-04-02T09:45:49.282Z,70.6028
2023-04-02T09:46:50.764Z,71.0516
2023-04-02T09:47:52.240Z,70.7174
2023-04-02T09:48:53.703Z,70.5570
2023-04-02T09:49:55.149Z,70.5932
2023-04-02T09:50:56.639Z,70.3538
2023-04-02T09:51:58.732Z,70.3377
2023-04-02T09:53:00.212Z,70.5630
2023-04-02T09:54:01.681Z,69.8382
2023-04-02T09:55:03.137Z,70.0221
2023-04-02T09:56:04.617Z,70.1176
2023-04-02T09:57:06.120Z,70.0459
2023-04-02T09:58:07.575Z,70.2243
2023-04-02T09:59:09.025Z,70.0793
2023-04-02T10:00:18.371Z,70.2219
2023-04-02T10:01:10.586Z,70.1017
2023-04-02T10:02:12.024Z,70.1239
2023-04-02T10:03:13.478Z,69.4518
2023-04-02T10:04:14.951Z,68.7405
2023-04-02T10:05:23.549Z,68.7996
2023-04-02T10:06:15.550Z,68.4678
2023-04-02T10:07:16.970Z,68.2284
2023-04-02T10:08:18.446Z,68.1381
2023-04-02T10:09:19.915Z,68.1692
2023-04-02T10:10:21.406Z,67.3668
2023-04-02T10:11:22.973Z,67.7581
2023-04-02T10:12:24.930Z,68.0153
2023-04-02T10:13:26.364Z,67.9554
2023-04-02T10:14:27.829Z,67.5853
2023-04-02T10:15:29.222Z,67.3430
2023-04-02T10:16:30.708Z,67.6276
2023-04-02T10:17:32.178Z,67.3069
2023-04-02T10:18:33.722Z,67.0951
2023-04-02T10:19:35.179Z,67.1847
2023-04-02T10:20:48.597Z,67.6470
2023-04-02T10:21:36.653Z,67.7253
2023-04-02T10:22:38.117Z,67.5481
2023-04-02T10:23:39.591Z,67.7084
2023-04-02T10:24:41.052Z,67.4633
2023-04-02T10:25:42.508Z,66.8430
2023-04-02T10:26:43.990Z,66.6990
2023-04-02T10:27:45.402Z,67.0141
2023-04-02T10:28:46.895Z,67.2859
2023-04-02T10:29:48.331Z,66.9882
2023-04-02T10:30:49.814Z,66.7411
2023-04-02T10:31:51.231Z,66.6631
2023-04-02T10:32:52.728Z,66.8854
2023-04-02T10:33:54.189Z,67.2867
2023-04-02T10:34:55.622Z,66.4969
2023-04-02T10:35:57.123Z,66.5431
2023-04-02T10:36:58.541Z,67.1218
2023-04-02T10:37:59.994Z,67.1615
2023-04-02T10:39:01.414Z,67.1261
2023-04-02T10:40:02.845Z,66.7226
2023-04-02T10:41:04.324Z,67.3395
2023-04-02T10:42:05.723Z,67.7191
2023-04-02T10:43:07.181Z,67.5909
2023-04-02T10:44:18.998Z,67.8622
2023-04-02T10:45:08.707Z,68.1889
2023-04-02T10:46:10.205Z,67.5391
2023-04-02T10:47:11.737Z,66.0422
2023-04-02T10:48:13.192Z,66.7070
2023-04-02T10:49:14.672Z,66.3902
2023-04-02T10:50:16.100Z,65.8965
2023-04-02T10:51:17.596Z,65.3225
2023-04-02T10:52:19.038Z,65.1148
2023-04-02T10:53:20.485Z,65.5265
2023-04-02T10:54:21.899Z,65.1373
2023-04-02T10:55:23.366Z,65.1687
2023-04-02T10:56:24.832Z,63.8231
2023-04-02T10:57:26.304Z,63.3571
2023-04-02T10:58:27.739Z,64.1411
2023-04-02T10:59:29.194Z,63.5364
2023-04-02T11:00:30.655Z,62.6000
2023-04-02T11:01:32.156Z,63.1667
2023-04-02T11:02:33.594Z,63.7999
2023-04-02T11:03:35.197Z,63.2899
2023-04-02T11:04:36.675Z,62.7369
2023-04-02T11:05:38.158Z,62.6762
2023-04-02T11:06:39.586Z,63.1480
2023-04-02T11:07:41.021Z,63.4073
2023-04-02T11:08:42.417Z,63.3513
2023-04-02T11:09:43.896Z,63.5722
2023-04-02T11:10:45.343Z,64.7782
2023-04-02T11:11:46.789Z,64.0452
2023-04-02T11:12:48.199Z,63.0235
2023-04-02T11:13:49.657Z,63.5379
2023-04-02T11:14:51.114Z,63.2997
2023-04-02T11:15:52.579Z,64.1531
2023-04-02T11:16:54.038Z,62.7118
2023-04-02T11:17:55.513Z,62.0361
2023-04-02T11:18:56.954Z,61.9440
2023-04-02T11:19:58.377Z,62.0677
2023-04-02T11:20:59.834Z,60.4628
2023-04-02T11:22:03.113Z,61.6181
2023-04-02T11:23:01.818Z,62.2942
2023-04-02T11:24:03.218Z,61.9568
2023-04-02T11:25:04.672Z,62.0332
2023-04-02T11:26:06.115Z,61.9551
2023-04-02T11:27:07.650Z,61.7971
2023-04-02T11:28:09.073Z,61.9716
2023-04-02T11:29:10.532Z,61.9255
2023-04-02T11:30:11.972Z,61.6672
2023-04-02T11:31:13.406Z,61.3226
2023-04-02T11:32:14.818Z,62.1778
2023-04-02T11:33:18.692Z,60.6427
2023-04-02T11:34:17.554Z,60.5804
2023-04-02T11:35:19.012Z,60.5499
2023-04-02T11:36:20.420Z,60.3894
2023-04-02T11:37:21.911Z,60.1232
2023-04-02T11:38:23.294Z,58.9087
2023-04-02T11:39:24.726Z,58.4642
2023-04-02T11:40:26.154Z,56.8853
2023-04-02T11:41:27.576Z,54.9034
2023-04-02T11:42:29.023Z,56.1515
2023-04-02T11:43:30.455Z,54.9651
2023-04-02T11:44:31.838Z,55.2460
2023-04-02T11:45:40.167Z,53.4475
2023-04-02T11:46:33.221Z,54.6240
2023-04-02T11:47:34.660Z,55.2566
2023-04-02T11:48:36.273Z,56.4412
2023-04-02T11:49:37.788Z,59.0217
2023-04-02T11:50:38.255Z,59.9801
2023-04-02T11:51:39.762Z,58.7691
2023-04-02T11:52:41.272Z,61.1987
2023-04-02T11:53:42.649Z,61.0866
2023-04-02T11:54:44.074Z,60.5160
2023-04-02T11:55:45.418Z,60.2723
2023-04-02T11:56:46.793Z,61.1109
2023-04-02T11:57:48.176Z,61.7666
2023-04-02T11:58:49.527Z,61.4771
2023-04-02T11:59:50.863Z,62.7471
2023-04-02T12:00:52.267Z,61.9476
2023-04-02T12:01:53.633Z,61.0755
2023-04-02T12:02:55.016Z,59.9026
2023-04-02T12:03:56.396Z,61.2951
2023-04-02T12:04:57.721Z,64.0250
2023-04-02T12:05:59.082Z,62.5545
2023-04-02T12:07:00.463Z,64.1140
2023-04-02T12:08:01.830Z,65.2226
2023-04-02T12:09:03.271Z,64.7954
2023-04-02T12:10:04.639Z,64.1227
2023-04-02T12:11:06.016Z,63.3491
2023-04-02T12:12:07.398Z,63.2278
2023-04-02T12:13:08.795Z,63.2222
2023-04-02T12:14:10.177Z,63.5188
2023-04-02T12:15:10.165Z,64.1563
2023-04-02T12:16:11.558Z,64.3197
2023-04-02T12:17:13.091Z,64.0275
2023-04-02T12:18:14.583Z,63.8856
2023-04-02T12:19:15.968Z,63.3772
2023-04-02T12:20:17.386Z,63.7800
2023-04-02T12:21:18.795Z,64.1849
2023-04-02T12:22:20.344Z,62.7983
2023-04-02T12:23:21.745Z,61.6477